createdAt,value
2022-11-29T00:02:13.064Z,7.74
2022-11-29T00:05:01.113Z,7.73
2022-11-29T00:07:49.408Z,7.70
2022-11-29T00:10:37.915Z,7.74
2022-11-29T00:13:25.880Z,7.74
2022-11-29T00:16:14.700Z,7.77
2022-11-29T00:19:04.473Z,7.77
2022-11-29T00:21:52.472Z,7.83
2022-11-29T00:24:42.232Z,7.90
2022-11-29T00:27:30.652Z,7.85
2022-11-29T00:30:18.809Z,7.88
2022-11-29T00:33:06.900Z,7.83
2022-11-29T00:35:56.467Z,7.80
2022-11-29T00:38:45.015Z,7.80
2022-11-29T00:41:33.049Z,7.82
2022-11-29T00:44:21.193Z,7.83
2022-11-29T00:47:09.289Z,7.80
2022-11-29T00:49:57.320Z,7.79
2022-11-29T00:52:46.679Z,7.74
2022-11-29T00:55:34.692Z,7.79
2022-11-29T00:58:23.081Z,7.80
2022-11-29T01:01:11.905Z,7.72
2022-11-29T01:04:01.428Z,7.68
2022-11-29T01:06:51.762Z,7.66
2022-11-29T01:09:41.325Z,7.66
2022-11-29T01:12:29.574Z,7.69
2022-11-29T01:15:17.718Z,7.70
2022-11-29T01:18:05.748Z,7.69
2022-11-29T01:20:58.130Z,7.72
2022-11-29T01:23:47.174Z,7.14
2022-11-29T01:26:36.546Z,7.70
2022-11-29T01:29:24.615Z,7.74
2022-11-29T01:32:13.314Z,7.71
2022-11-29T01:35:01.372Z,7.71
2022-11-29T01:37:49.376Z,7.70
2022-11-29T01:40:37.538Z,7.68
2022-11-29T01:43:27.091Z,7.71
2022-11-29T01:46:15.109Z,7.75
2022-11-29T01:49:07.240Z,7.75
2022-11-29T01:51:59.804Z,7.79
2022-11-29T01:54:49.687Z,7.80
2022-11-29T01:57:41.302Z,7.77
2022-11-29T02:00:30.787Z,7.72
2022-11-29T02:03:19.532Z,7.22
2022-11-29T02:06:08.740Z,7.76
2022-11-29T02:08:56.910Z,7.77
2022-11-29T02:12:05.125Z,7.70
2022-11-29T02:15:19.679Z,7.71
2022-11-29T02:18:14.593Z,7.63
2022-11-29T02:21:21.461Z,7.71
2022-11-29T02:24:38.036Z,7.74
2022-11-29T02:27:59.515Z,7.68
2022-11-29T02:31:35.177Z,7.73
2022-11-29T02:34:54.900Z,7.72
2022-11-29T02:38:00.199Z,7.65
2022-11-29T02:41:06.024Z,7.68
2022-11-29T02:44:12.380Z,7.68
2022-11-29T02:47:13.546Z,7.61
2022-11-29T02:50:18.470Z,7.65
2022-11-29T02:53:14.224Z,7.67
2022-11-29T02:56:14.557Z,7.70
2022-11-29T02:59:10.416Z,7.70
2022-11-29T03:02:05.805Z,7.74
2022-11-29T03:05:02.506Z,7.70
2022-11-29T03:07:59.642Z,7.76
2022-11-29T03:11:00.413Z,7.72
2022-11-29T03:13:57.143Z,7.71
2022-11-29T03:16:52.337Z,7.74
2022-11-29T03:20:00.784Z,7.76
2022-11-29T03:23:03.204Z,7.74
2022-11-29T03:25:56.519Z,7.76
2022-11-29T03:28:50.762Z,7.77
2022-11-29T03:31:45.931Z,7.79
2022-11-29T03:34:51.740Z,7.78
2022-11-29T03:37:49.582Z,7.74
2022-11-29T03:40:48.617Z,7.76
2022-11-29T03:43:44.208Z,7.76
2022-11-29T03:46:38.918Z,7.70
2022-11-29T03:49:34.054Z,7.75
2022-11-29T03:52:27.722Z,7.77
2022-11-29T03:55:32.549Z,7.77
2022-11-29T03:58:37.403Z,7.80
2022-11-29T04:02:21.140Z,7.78
2022-11-29T04:05:32.388Z,7.73
2022-11-29T04:09:00.916Z,7.69
2022-11-29T04:12:07.128Z,7.22
2022-11-29T04:15:46.073Z,7.72
2022-11-29T04:19:05.471Z,7.78
2022-11-29T04:22:20.149Z,7.78
2022-11-29T04:25:35.760Z,7.73
2022-11-29T04:28:59.327Z,7.72
2022-11-29T04:32:09.323Z,7.75
2022-11-29T04:35:15.963Z,7.74
2022-11-29T04:38:20.793Z,7.77
2022-11-29T04:41:24.692Z,7.74
2022-11-29T04:44:39.143Z,7.76
2022-11-29T04:47:43.238Z,7.61
2022-11-29T04:50:49.825Z,7.74
2022-11-29T04:53:50.427Z,7.72
2022-11-29T04:56:43.806Z,7.64
2022-11-29T04:59:44.158Z,7.70
2022-11-29T05:02:37.980Z,7.06
2022-11-29T05:05:37.253Z,7.74
2022-11-29T05:08:35.759Z,7.76
2022-11-29T05:11:33.611Z,7.80
2022-11-29T05:14:32.394Z,7.80
2022-11-29T05:17:31.675Z,7.74
2022-11-29T05:20:30.057Z,7.73
2022-11-29T05:23:40.899Z,7.77
2022-11-29T05:26:33.353Z,7.74
2022-11-29T05:29:31.034Z,7.75
2022-11-29T05:32:29.514Z,7.75
2022-11-29T05:35:52.473Z,7.72
2022-11-29T05:38:56.487Z,7.70
2022-11-29T05:41:59.395Z,7.76
2022-11-29T05:44:54.638Z,7.77
2022-11-29T05:47:51.240Z,7.75
2022-11-29T05:50:44.197Z,7.76
2022-11-29T05:53:41.162Z,7.71
2022-11-29T05:56:41.641Z,7.70
2022-11-29T05:59:31.214Z,7.73
2022-11-29T06:02:33.704Z,7.73
2022-11-29T06:05:30.032Z,7.73
2022-11-29T06:08:24.600Z,7.70
2022-11-29T06:11:17.083Z,7.72
2022-11-29T06:14:13.640Z,7.72
2022-11-29T06:17:25.466Z,7.69
2022-11-29T06:20:32.920Z,7.68
2022-11-29T06:23:38.097Z,7.68
2022-11-29T06:26:40.365Z,7.68
2022-11-29T06:29:36.687Z,7.26
2022-11-29T06:32:36.818Z,7.29
2022-11-29T06:35:37.349Z,7.70
2022-11-29T06:38:28.485Z,7.67
2022-11-29T06:41:20.416Z,7.64
2022-11-29T06:44:09.201Z,7.64
2022-11-29T06:47:04.760Z,7.62
2022-11-29T06:49:58.086Z,7.63
2022-11-29T06:52:58.302Z,7.66
2022-11-29T06:55:54.887Z,7.66
2022-11-29T06:58:51.846Z,7.66
2022-11-29T07:01:46.571Z,7.65
2022-11-29T07:04:33.210Z,7.66
2022-11-29T07:07:01.449Z,7.66
2022-11-29T07:09:33.190Z,7.64
2022-11-29T07:12:01.462Z,7.54
2022-11-29T07:14:29.758Z,7.56
2022-11-29T07:17:07.617Z,7.60
2022-11-29T07:19:45.998Z,7.65
2022-11-29T07:22:32.672Z,7.69
2022-11-29T07:25:04.784Z,7.67
2022-11-29T07:27:42.364Z,7.66
2022-11-29T07:30:15.456Z,7.67
2022-11-29T07:32:59.895Z,7.64
2022-11-29T07:35:37.044Z,7.61
2022-11-29T07:38:12.530Z,7.55
2022-11-29T07:40:46.799Z,7.56
2022-11-29T07:43:24.877Z,7.47
2022-11-29T07:45:53.920Z,7.62
2022-11-29T07:48:21.638Z,7.52
2022-11-29T07:50:50.799Z,7.54
2022-11-29T07:53:20.524Z,7.58
2022-11-29T07:55:49.503Z,7.54
2022-11-29T07:58:18.657Z,7.56
2022-11-29T08:00:47.418Z,7.65
2022-11-29T08:03:15.158Z,7.47
2022-11-29T08:05:47.658Z,7.48
2022-11-29T08:08:17.251Z,7.67
2022-11-29T08:10:45.051Z,7.64
2022-11-29T08:13:13.077Z,7.74
2022-11-29T08:15:45.383Z,7.68
2022-11-29T08:18:13.267Z,7.78
2022-11-29T08:20:41.717Z,7.66
2022-11-29T08:23:12.514Z,7.65
2022-11-29T08:25:41.700Z,7.61
2022-11-29T08:28:09.441Z,7.55
2022-11-29T08:30:37.299Z,7.70
2022-11-29T08:33:05.882Z,7.72
2022-11-29T08:35:36.029Z,7.79
2022-11-29T08:38:04.947Z,7.78
2022-11-29T08:40:32.723Z,7.85
2022-11-29T08:43:01.759Z,7.87
2022-11-29T08:45:29.577Z,7.87
2022-11-29T08:47:57.306Z,7.78
2022-11-29T08:50:25.631Z,7.77
2022-11-29T08:53:11.050Z,7.90
2022-11-29T08:55:42.491Z,7.87
2022-11-29T08:58:13.486Z,7.96
2022-11-29T09:00:43.334Z,7.98
2022-11-29T09:03:28.644Z,7.90
2022-11-29T09:05:57.482Z,7.96
2022-11-29T09:08:25.182Z,7.91
2022-11-29T09:10:53.273Z,7.86
2022-11-29T09:13:22.330Z,7.87
2022-11-29T09:15:50.005Z,7.83
2022-11-29T09:18:18.028Z,7.89
2022-11-29T09:20:45.943Z,7.93
2022-11-29T09:23:13.931Z,8.01
2022-11-29T09:25:41.680Z,7.94
2022-11-29T09:28:09.507Z,7.94
2022-11-29T09:30:38.592Z,7.84
2022-11-29T09:33:06.403Z,7.91
2022-11-29T09:35:35.101Z,8.06
2022-11-29T09:38:02.787Z,8.12
2022-11-29T09:40:34.866Z,8.25
2022-11-29T09:43:15.047Z,8.34
2022-11-29T09:45:48.189Z,8.35
2022-11-29T09:48:57.445Z,8.34
2022-11-29T09:51:32.321Z,8.35
2022-11-29T09:54:16.514Z,8.41
2022-11-29T09:56:47.342Z,8.47
2022-11-29T09:59:19.636Z,8.46
2022-11-29T10:01:54.664Z,8.47
2022-11-29T10:04:26.810Z,8.50
2022-11-29T10:06:59.926Z,8.42
2022-11-29T10:09:34.076Z,8.37
2022-11-29T10:12:12.664Z,8.41
2022-11-29T10:14:47.165Z,8.44
2022-11-29T10:17:25.672Z,8.42
2022-11-29T10:19:58.446Z,8.46
2022-11-29T10:22:35.679Z,8.44
2022-11-29T10:25:04.233Z,8.54
2022-11-29T10:27:31.902Z,8.58
2022-11-29T10:30:02.366Z,8.53
2022-11-29T10:32:33.256Z,8.55
2022-11-29T10:35:01.596Z,8.64
2022-11-29T10:37:32.627Z,8.70
2022-11-29T10:40:04.526Z,8.76
2022-11-29T10:42:53.051Z,8.73
2022-11-29T10:45:27.800Z,8.67
2022-11-29T10:48:01.788Z,8.77
2022-11-29T10:50:31.863Z,8.89
2022-11-29T10:53:04.906Z,8.93
2022-11-29T10:55:39.551Z,8.97
2022-11-29T10:58:16.975Z,8.96
2022-11-29T11:00:53.365Z,8.91
2022-11-29T11:03:30.354Z,8.99
2022-11-29T11:06:04.562Z,9.19
2022-11-29T11:08:34.100Z,9.21
2022-11-29T11:11:04.483Z,9.22
2022-11-29T11:13:33.496Z,9.14
2022-11-29T11:16:11.667Z,9.13
2022-11-29T11:18:40.703Z,9.30
2022-11-29T11:21:11.644Z,9.26
2022-11-29T11:23:46.333Z,9.25
2022-11-29T11:26:15.591Z,9.26
2022-11-29T11:28:49.281Z,9.22
2022-11-29T11:31:27.534Z,9.12
2022-11-29T11:33:56.799Z,9.10
2022-11-29T11:36:26.009Z,9.05
2022-11-29T11:38:55.912Z,9.11
2022-11-29T11:41:48.520Z,9.12
2022-11-29T11:47:20.950Z,9.10
2022-11-29T11:49:55.295Z,9.06
2022-11-29T11:52:25.911Z,9.10
2022-11-29T11:54:56.267Z,9.11
2022-11-29T11:57:26.292Z,9.08
2022-11-29T11:59:57.266Z,9.07
2022-11-29T12:02:29.808Z,8.99
2022-11-29T12:05:03.461Z,9.05
2022-11-29T12:08:06.803Z,9.09
2022-11-29T12:10:28.534Z,9.05
2022-11-29T12:12:58.200Z,8.96
2022-11-29T12:15:30.386Z,8.90
2022-11-29T12:18:05.170Z,8.86
2022-11-29T12:20:41.527Z,8.88
2022-11-29T12:23:28.130Z,8.82
2022-11-29T12:25:59.893Z,8.91
2022-11-29T12:28:32.781Z,8.92
2022-11-29T12:31:09.116Z,8.94
2022-11-29T12:33:47.444Z,8.88
2022-11-29T12:36:27.035Z,8.88
2022-11-29T12:39:38.721Z,8.97
2022-11-29T12:42:17.475Z,8.97
2022-11-29T12:44:55.689Z,8.93
2022-11-29T12:47:36.011Z,8.95
2022-11-29T12:50:16.337Z,8.93
2022-11-29T12:52:52.252Z,8.86
2022-11-29T12:55:25.445Z,8.85
2022-11-29T12:58:00.907Z,8.90
2022-11-29T13:00:37.054Z,8.89
2022-11-29T13:03:16.441Z,8.84
2022-11-29T13:05:56.628Z,8.83
2022-11-29T13:08:46.278Z,8.84
2022-11-29T13:11:21.659Z,8.84
2022-11-29T13:14:08.245Z,8.89
2022-11-29T13:16:53.020Z,8.88
2022-11-29T13:19:25.962Z,8.85
2022-11-29T13:22:03.367Z,8.87
2022-11-29T13:24:42.732Z,8.55
2022-11-29T13:27:15.823Z,8.82
2022-11-29T13:29:43.993Z,8.85
2022-11-29T13:32:32.422Z,8.92
2022-11-29T13:35:05.657Z,9.01
2022-11-29T13:37:39.917Z,8.98
2022-11-29T13:40:22.663Z,9.02
2022-11-29T13:42:59.439Z,8.90
2022-11-29T13:45:37.366Z,8.81
2022-11-29T13:48:30.784Z,8.78
2022-11-29T13:50:59.256Z,8.77
2022-11-29T13:53:45.227Z,8.75
2022-11-29T13:56:29.645Z,8.82
2022-11-29T13:58:58.921Z,8.89
2022-11-29T14:01:27.042Z,8.80
2022-11-29T14:04:05.568Z,8.81
2022-11-29T14:06:34.757Z,8.35
2022-11-29T14:09:25.767Z,8.68
2022-11-29T14:12:02.616Z,8.77
2022-11-29T14:14:35.928Z,8.83
2022-11-29T14:17:05.583Z,8.79
2022-11-29T14:19:34.614Z,8.79
2022-11-29T14:22:21.056Z,8.77
2022-11-29T14:25:16.334Z,8.84
2022-11-29T14:28:04.740Z,8.80
2022-11-29T14:30:48.995Z,8.85
2022-11-29T14:33:27.888Z,8.93
2022-11-29T14:36:22.117Z,8.32
2022-11-29T14:38:57.861Z,8.91
2022-11-29T14:41:33.987Z,8.94
2022-11-29T14:44:16.005Z,8.94
2022-11-29T14:46:44.227Z,8.98
2022-11-29T14:49:23.574Z,8.75
2022-11-29T14:52:17.499Z,8.97
2022-11-29T14:54:58.848Z,8.92
2022-11-29T14:57:54.907Z,8.91
2022-11-29T15:00:25.862Z,8.90
2022-11-29T15:02:56.582Z,8.89
2022-11-29T15:05:31.921Z,8.89
2022-11-29T15:08:09.571Z,8.84
2022-11-29T15:10:41.118Z,8.86
2022-11-29T15:13:12.902Z,8.83
2022-11-29T15:16:09.280Z,8.81
2022-11-29T15:19:16.485Z,8.81
2022-11-29T15:21:54.095Z,8.79
2022-11-29T15:24:26.800Z,8.84
2022-11-29T15:26:57.454Z,8.85
2022-11-29T15:29:25.918Z,8.89
2022-11-29T15:31:57.709Z,8.88
2022-11-29T15:34:32.234Z,8.84
2022-11-29T15:37:00.364Z,8.94
2022-11-29T15:39:31.181Z,8.95
2022-11-29T15:42:03.845Z,8.81
2022-11-29T15:44:33.053Z,8.83
2022-11-29T15:47:22.067Z,8.79
2022-11-29T15:49:49.812Z,8.81
2022-11-29T15:52:25.492Z,8.80
2022-11-29T15:54:57.705Z,8.82
2022-11-29T15:57:28.985Z,8.82
2022-11-29T16:00:00.014Z,8.81
2022-11-29T16:02:32.522Z,8.79
2022-11-29T16:05:03.992Z,8.78
2022-11-29T16:07:34.079Z,8.75
2022-11-29T16:10:06.534Z,8.69
2022-11-29T16:12:34.373Z,8.60
2022-11-29T16:15:02.400Z,8.41
2022-11-29T16:17:34.215Z,8.61
2022-11-29T16:20:23.333Z,8.50
2022-11-29T16:23:04.901Z,8.63
2022-11-29T16:25:37.523Z,8.65
2022-11-29T16:28:06.187Z,8.64
2022-11-29T16:30:34.217Z,8.57
2022-11-29T16:33:03.809Z,8.61
2022-11-29T16:35:33.694Z,8.56
2022-11-29T16:38:05.008Z,8.46
2022-11-29T16:40:34.681Z,8.49
2022-11-29T16:43:23.777Z,8.50
2022-11-29T16:46:27.755Z,8.46
2022-11-29T16:48:58.741Z,8.42
2022-11-29T16:51:27.996Z,8.44
2022-11-29T16:53:55.826Z,8.42
2022-11-29T16:56:25.357Z,8.43
2022-11-29T16:59:26.040Z,8.41
2022-11-29T17:01:43.617Z,8.31
2022-11-29T17:04:12.786Z,8.28
2022-11-29T17:06:51.744Z,8.32
2022-11-29T17:09:23.882Z,8.27
2022-11-29T17:11:51.515Z,8.27
2022-11-29T17:14:19.408Z,8.14
2022-11-29T17:16:49.120Z,8.20
2022-11-29T17:19:19.674Z,8.15
2022-11-29T17:21:47.502Z,8.13
2022-11-29T17:24:17.663Z,8.19
2022-11-29T17:26:45.724Z,8.24
2022-11-29T17:29:15.052Z,8.30
2022-11-29T17:31:43.988Z,8.26
2022-11-29T17:34:11.720Z,8.28
2022-11-29T17:36:41.842Z,8.26
2022-11-29T17:39:09.667Z,8.10
2022-11-29T17:41:37.621Z,8.31
2022-11-29T17:44:05.593Z,8.27
2022-11-29T17:46:35.289Z,8.27
2022-11-29T17:49:05.249Z,8.27
2022-11-29T17:54:22.848Z,8.28
2022-11-29T17:56:50.531Z,8.23
2022-11-29T17:59:18.325Z,8.21
2022-11-29T18:01:46.969Z,8.15
2022-11-29T18:04:15.010Z,8.18
2022-11-29T18:06:43.447Z,8.17
2022-11-29T18:09:12.794Z,8.09
2022-11-29T18:11:48.098Z,7.86
2022-11-29T18:14:18.362Z,7.75
2022-11-29T18:16:46.396Z,7.89
2022-11-29T18:19:15.956Z,7.69
2022-11-29T18:21:43.985Z,7.65
2022-11-29T18:24:12.075Z,7.65
2022-11-29T18:26:40.749Z,7.62
2022-11-29T18:29:10.285Z,7.58
2022-11-29T18:31:40.714Z,7.56
2022-11-29T18:34:10.310Z,7.56
2022-11-29T18:36:39.735Z,7.52
2022-11-29T18:39:09.597Z,7.56
2022-11-29T18:41:38.131Z,7.36
2022-11-29T18:44:07.999Z,7.59
2022-11-29T18:46:38.134Z,7.55
2022-11-29T18:49:07.470Z,7.41
2022-11-29T18:51:35.947Z,7.42
2022-11-29T18:54:04.655Z,7.39
2022-11-29T18:56:35.328Z,7.36
2022-11-29T18:59:05.126Z,7.43
2022-11-29T19:01:35.195Z,7.45
2022-11-29T19:04:04.363Z,7.45
2022-11-29T19:06:39.253Z,7.47
2022-11-29T19:09:09.671Z,7.57
2022-11-29T19:11:37.372Z,7.56
2022-11-29T19:14:11.023Z,7.61
2022-11-29T19:16:40.421Z,7.68
2022-11-29T19:19:09.711Z,7.69
2022-11-29T19:21:39.526Z,7.74
2022-11-29T19:24:13.772Z,7.73
2022-11-29T19:26:44.090Z,7.77
2022-11-29T19:29:12.467Z,7.74
2022-11-29T19:31:40.236Z,7.66
2022-11-29T19:34:09.250Z,7.65
2022-11-29T19:36:42.763Z,7.56
2022-11-29T19:39:12.764Z,7.51
2022-11-29T19:41:40.846Z,7.48
2022-11-29T19:44:09.472Z,7.45
2022-11-29T19:46:39.005Z,7.31
2022-11-29T19:49:10.204Z,6.74
2022-11-29T19:51:38.593Z,7.11
2022-11-29T19:54:09.336Z,7.33
2022-11-29T19:56:38.148Z,7.31
2022-11-29T19:59:07.100Z,7.35
2022-11-29T20:01:40.939Z,7.32
2022-11-29T20:04:12.848Z,7.37
2022-11-29T20:06:41.179Z,7.25
2022-11-29T20:09:09.103Z,7.22
2022-11-29T20:11:36.863Z,7.16
2022-11-29T20:14:05.986Z,7.13
2022-11-29T20:16:34.603Z,7.11
2022-11-29T20:19:02.598Z,7.14
2022-11-29T20:21:33.840Z,6.97
2022-11-29T20:24:05.578Z,6.84
2022-11-29T20:26:36.502Z,6.81
2022-11-29T20:29:05.018Z,6.84
2022-11-29T20:31:34.226Z,6.84
2022-11-29T20:34:02.796Z,6.91
2022-11-29T20:36:42.674Z,6.87
2022-11-29T20:39:21.799Z,6.74
2022-11-29T20:42:14.076Z,6.61
2022-11-29T20:44:50.454Z,6.75
2022-11-29T20:47:19.662Z,6.74
2022-11-29T20:49:48.336Z,6.68
2022-11-29T20:52:33.802Z,6.66
2022-11-29T20:55:01.455Z,6.56
2022-11-29T20:57:29.250Z,6.43
2022-11-29T20:59:56.893Z,6.34
2022-11-29T21:02:24.741Z,6.28
2022-11-29T21:05:11.377Z,6.18
2022-11-29T21:08:00.714Z,6.12
2022-11-29T21:10:48.906Z,6.11
2022-11-29T21:13:37.985Z,6.10
2022-11-29T21:16:29.199Z,6.05
2022-11-29T21:19:21.192Z,6.02
2022-11-29T21:22:19.742Z,6.12
2022-11-29T21:25:19.068Z,6.18
2022-11-29T21:28:12.527Z,6.25
2022-11-29T21:31:01.071Z,6.31
2022-11-29T21:33:49.463Z,6.36
2022-11-29T21:36:38.265Z,6.45
2022-11-29T21:39:34.069Z,6.50
2022-11-29T21:42:23.370Z,6.58
2022-11-29T21:45:15.568Z,6.68
2022-11-29T21:48:03.688Z,6.79
2022-11-29T21:50:51.631Z,6.82
2022-11-29T21:53:40.630Z,6.89
2022-11-29T21:56:28.540Z,6.89
2022-11-29T21:59:17.991Z,6.90
2022-11-29T22:02:06.054Z,6.97
2022-11-29T22:04:54.115Z,7.01
2022-11-29T22:07:42.135Z,7.00
2022-11-29T22:10:30.105Z,7.09
2022-11-29T22:13:18.896Z,7.13
2022-11-29T22:16:11.432Z,7.10
2022-11-29T22:18:59.410Z,7.13
2022-11-29T22:21:49.615Z,7.08
2022-11-29T22:24:38.416Z,7.19
2022-11-29T22:27:26.342Z,7.27
2022-11-29T22:30:14.525Z,7.33
2022-11-29T22:33:05.767Z,7.42
2022-11-29T22:35:56.842Z,7.43
2022-11-29T22:38:44.847Z,7.43
2022-11-29T22:41:33.451Z,7.35
2022-11-29T22:44:21.399Z,7.31
2022-11-29T22:47:09.384Z,7.38
2022-11-29T22:49:58.686Z,7.40
2022-11-29T22:52:46.624Z,7.30
2022-11-29T22:55:34.585Z,7.23
2022-11-29T22:58:23.178Z,7.32
2022-11-29T23:01:13.945Z,7.32
2022-11-29T23:04:03.968Z,7.30
2022-11-29T23:06:56.352Z,7.31
2022-11-29T23:09:44.506Z,7.43
2022-11-29T23:12:32.453Z,7.47
2022-11-29T23:15:20.362Z,7.47
2022-11-29T23:18:08.287Z,7.41
2022-11-29T23:21:01.423Z,7.35
2022-11-29T23:23:56.048Z,7.17
2022-11-29T23:26:46.692Z,7.24
2022-11-29T23:29:34.677Z,7.23
2022-11-29T23:32:22.635Z,7.20
2022-11-29T23:35:10.751Z,7.25
2022-11-29T23:37:58.683Z,7.30
2022-11-29T23:40:47.972Z,7.28
2022-11-29T23:43:37.757Z,7.31
2022-11-29T23:46:25.756Z,7.33
2022-11-29T23:49:13.688Z,7.32
2022-11-29T23:52:02.594Z,7.30
2022-11-29T23:54:50.790Z,7.24
2022-11-29T23:57:40.067Z,7.16
